createdAt,value
2022-12-27T00:02:10.157Z,96394.13
2022-12-27T00:05:09.504Z,96385.22
2022-12-27T00:07:56.492Z,96366.56
2022-12-27T00:10:42.616Z,96393.00
2022-12-27T00:13:34.337Z,96387.88
2022-12-27T00:16:22.809Z,96388.13
2022-12-27T00:19:09.740Z,96355.09
2022-12-27T00:21:56.363Z,96398.66
2022-12-27T00:24:42.509Z,96383.03
2022-12-27T00:27:32.313Z,96395.19
2022-12-27T00:30:18.976Z,96395.91
2022-12-27T00:33:05.132Z,96394.97
2022-12-27T00:35:51.513Z,96407.50
2022-12-27T00:38:37.283Z,96396.94
2022-12-27T00:41:23.378Z,96403.91
2022-12-27T00:44:09.314Z,96399.16
2022-12-27T00:47:09.140Z,96391.03
2022-12-27T00:49:55.151Z,96402.53
2022-12-27T00:52:40.905Z,96402.88
2022-12-27T00:55:43.235Z,96393.47
2022-12-27T00:58:29.417Z,96399.25
2022-12-27T01:01:18.737Z,96399.63
2022-12-27T01:04:08.518Z,96395.91
2022-12-27T01:06:54.498Z,96404.38
2022-12-27T01:09:43.564Z,96395.78
2022-12-27T01:13:02.301Z,96393.59
2022-12-27T01:15:48.075Z,96388.28
2022-12-27T01:18:34.126Z,96396.38
2022-12-27T01:21:25.204Z,96392.06
2022-12-27T01:24:16.598Z,96391.50
2022-12-27T01:27:02.477Z,96381.41
2022-12-27T01:29:48.374Z,96394.88
2022-12-27T01:32:34.509Z,96395.91
2022-12-27T01:35:20.793Z,96389.75
2022-12-27T01:38:07.410Z,96394.75
2022-12-27T01:40:53.175Z,96385.13
2022-12-27T01:43:39.173Z,96398.00
2022-12-27T01:46:25.180Z,96390.00
2022-12-27T01:49:11.836Z,96383.97
2022-12-27T01:51:57.648Z,96393.59
2022-12-27T01:54:43.515Z,96396.72
2022-12-27T01:57:29.656Z,96387.56
2022-12-27T02:00:16.008Z,96388.16
2022-12-27T02:03:04.507Z,96377.84
2022-12-27T02:05:51.696Z,96391.41
2022-12-27T02:08:53.437Z,96379.81
2022-12-27T02:11:52.353Z,96382.38
2022-12-27T02:14:48.073Z,96376.09
2022-12-27T02:17:34.462Z,96385.50
2022-12-27T02:20:22.924Z,96383.88
2022-12-27T02:23:40.652Z,96388.38
2022-12-27T02:26:35.967Z,96392.91
2022-12-27T02:29:54.274Z,96389.66
2022-12-27T02:33:20.924Z,96393.94
2022-12-27T02:36:10.778Z,96388.84
2022-12-27T02:38:59.718Z,96387.47
2022-12-27T02:42:13.006Z,96380.75
2022-12-27T02:45:18.757Z,96385.25
2022-12-27T02:48:24.540Z,96359.78
2022-12-27T02:51:45.673Z,96365.19
2022-12-27T02:54:43.749Z,96384.09
2022-12-27T02:58:11.873Z,96378.06
2022-12-27T03:01:34.608Z,96390.22
2022-12-27T03:04:45.157Z,96384.88
2022-12-27T03:07:56.825Z,96381.75
2022-12-27T03:11:18.711Z,96387.06
2022-12-27T03:14:33.621Z,96370.63
2022-12-27T03:17:30.826Z,96388.94
2022-12-27T03:20:36.831Z,96390.34
2022-12-27T03:23:50.706Z,96387.47
2022-12-27T03:26:39.922Z,96395.00
2022-12-27T03:29:46.171Z,96400.66
2022-12-27T03:33:08.431Z,96391.75
2022-12-27T03:40:00.987Z,96407.03
2022-12-27T03:43:12.098Z,96406.22
2022-12-27T03:46:30.098Z,96404.97
2022-12-27T03:49:34.254Z,96393.13
2022-12-27T03:52:25.645Z,96405.56
2022-12-27T03:55:12.722Z,96397.19
2022-12-27T03:58:03.877Z,96370.19
2022-12-27T04:00:50.514Z,96397.56
2022-12-27T04:03:37.160Z,96393.13
2022-12-27T04:06:25.191Z,96376.22
2022-12-27T04:09:42.035Z,96375.75
2022-12-27T04:13:02.818Z,96383.38
2022-12-27T04:16:08.509Z,96411.44
2022-12-27T04:19:12.776Z,96409.81
2022-12-27T04:22:17.268Z,96415.16
2022-12-27T04:25:22.969Z,96407.38
2022-12-27T04:28:29.091Z,96406.56
2022-12-27T04:31:36.257Z,96398.47
2022-12-27T04:34:41.284Z,96405.38
2022-12-27T04:37:35.837Z,96400.19
2022-12-27T04:40:40.743Z,96418.84
2022-12-27T04:43:45.593Z,96420.69
2022-12-27T04:46:52.142Z,96415.59
2022-12-27T04:49:56.856Z,96409.44
2022-12-27T04:53:01.455Z,96418.03
2022-12-27T04:55:47.583Z,96416.41
2022-12-27T04:58:33.400Z,96407.13
2022-12-27T05:01:38.180Z,96419.88
2022-12-27T05:04:24.292Z,96413.97
2022-12-27T05:07:35.916Z,96410.72
2022-12-27T05:10:40.171Z,96415.00
2022-12-27T05:13:44.795Z,96420.59
2022-12-27T05:16:43.779Z,96426.97
2022-12-27T05:19:29.662Z,96413.88
2022-12-27T05:22:33.901Z,96429.38
2022-12-27T05:25:35.081Z,96425.09
2022-12-27T05:28:20.852Z,96419.06
2022-12-27T05:31:06.580Z,96421.59
2022-12-27T05:33:53.070Z,96421.78
2022-12-27T05:36:38.895Z,96417.34
2022-12-27T05:39:24.495Z,96421.09
2022-12-27T05:42:10.381Z,96424.78
2022-12-27T05:44:56.047Z,96421.53
2022-12-27T05:47:41.788Z,96412.50
2022-12-27T05:50:27.943Z,96415.28
2022-12-27T05:53:28.672Z,96409.06
2022-12-27T05:56:19.780Z,96435.16
2022-12-27T05:59:08.147Z,96430.16
2022-12-27T06:01:54.145Z,96428.06
2022-12-27T06:04:39.946Z,96414.41
2022-12-27T06:07:25.647Z,96425.19
2022-12-27T06:10:11.516Z,96429.25
2022-12-27T06:13:00.107Z,96411.50
2022-12-27T06:15:46.060Z,96426.44
2022-12-27T06:18:33.931Z,96421.91
2022-12-27T06:21:21.735Z,96426.09
2022-12-27T06:24:07.794Z,96427.94
2022-12-27T06:26:53.805Z,96422.25
2022-12-27T06:29:39.477Z,96430.59
2022-12-27T06:32:25.267Z,96439.50
2022-12-27T06:35:11.340Z,96438.03
2022-12-27T06:37:57.359Z,96428.56
2022-12-27T06:40:43.241Z,96445.69
2022-12-27T06:43:29.119Z,96435.63
2022-12-27T06:46:18.334Z,96439.91
2022-12-27T06:49:04.810Z,96437.38
2022-12-27T06:51:57.375Z,96443.50
2022-12-27T06:54:45.722Z,96444.69
2022-12-27T06:57:31.298Z,96446.69
2022-12-27T07:00:17.696Z,96447.00
2022-12-27T07:03:04.596Z,96459.66
2022-12-27T07:05:50.503Z,96452.03
2022-12-27T07:08:36.400Z,96450.50
2022-12-27T07:11:23.152Z,96451.47
2022-12-27T07:14:10.879Z,96445.66
2022-12-27T07:16:56.801Z,96447.84
2022-12-27T07:19:42.495Z,96447.41
2022-12-27T07:22:28.166Z,96438.94
2022-12-27T07:25:13.957Z,96435.56
2022-12-27T07:27:59.633Z,96444.38
2022-12-27T07:30:45.276Z,96447.50
2022-12-27T07:33:30.861Z,96457.72
2022-12-27T07:36:19.508Z,96449.13
2022-12-27T07:39:05.942Z,96446.81
2022-12-27T07:41:52.135Z,96447.63
2022-12-27T07:44:38.144Z,96455.06
2022-12-27T07:47:24.268Z,96456.69
2022-12-27T07:50:10.320Z,96459.94
2022-12-27T07:52:56.121Z,96465.13
2022-12-27T07:55:43.623Z,96472.81
2022-12-27T07:58:29.208Z,96464.31
2022-12-27T08:01:16.251Z,96475.72
2022-12-27T08:04:02.313Z,96475.22
2022-12-27T08:06:48.338Z,96482.19
2022-12-27T08:09:37.061Z,96476.97
2022-12-27T08:12:24.053Z,96480.00
2022-12-27T08:15:11.145Z,96485.22
2022-12-27T08:17:56.989Z,96486.38
2022-12-27T08:20:42.746Z,96479.44
2022-12-27T08:23:29.171Z,96478.38
2022-12-27T08:26:15.631Z,96474.09
2022-12-27T08:29:02.141Z,96476.63
2022-12-27T08:31:47.739Z,96474.53
2022-12-27T08:34:33.518Z,96480.94
2022-12-27T08:37:19.268Z,96472.78
2022-12-27T08:40:05.271Z,96477.22
2022-12-27T08:42:50.945Z,96477.66
2022-12-27T08:45:37.786Z,96457.84
2022-12-27T08:48:23.623Z,96476.16
2022-12-27T08:51:13.108Z,96475.59
2022-12-27T08:54:00.429Z,96483.22
2022-12-27T08:56:45.993Z,96475.59
2022-12-27T08:59:31.602Z,96467.22
2022-12-27T09:02:17.301Z,96471.72
2022-12-27T09:05:02.957Z,96474.16
2022-12-27T09:07:49.548Z,96469.41
2022-12-27T09:10:35.291Z,96465.69
2022-12-27T09:13:22.194Z,96466.34
2022-12-27T09:16:13.783Z,96460.91
2022-12-27T09:19:00.129Z,96463.53
2022-12-27T09:21:45.807Z,96456.28
2022-12-27T09:24:31.490Z,96457.56
2022-12-27T09:27:17.152Z,96455.06
2022-12-27T09:30:07.664Z,96459.78
2022-12-27T09:32:53.331Z,96454.03
2022-12-27T09:35:39.737Z,96446.38
2022-12-27T09:38:25.667Z,96438.41
2022-12-27T09:45:16.594Z,96432.75
2022-12-27T09:48:06.068Z,96430.59
2022-12-27T09:50:56.017Z,96434.72
2022-12-27T09:54:03.599Z,96426.28
2022-12-27T09:57:21.055Z,96412.50
2022-12-27T10:00:05.550Z,96404.69
2022-12-27T10:02:52.505Z,96404.44
2022-12-27T10:05:39.603Z,96414.88
2022-12-27T10:08:46.056Z,96403.59
2022-12-27T10:12:12.745Z,96390.19
2022-12-27T10:15:07.939Z,96392.09
2022-12-27T10:18:15.177Z,96383.19
2022-12-27T10:21:16.113Z,96375.69
2022-12-27T10:24:20.633Z,96376.94
2022-12-27T10:27:19.662Z,96374.69
2022-12-27T10:30:20.297Z,96359.22
2022-12-27T10:33:30.395Z,96357.22
2022-12-27T10:36:23.198Z,96357.88
2022-12-27T10:39:18.501Z,96349.84
2022-12-27T10:42:28.689Z,96340.66
2022-12-27T10:45:39.837Z,96349.78
2022-12-27T10:49:20.491Z,96343.50
2022-12-27T10:52:17.939Z,96325.59
2022-12-27T10:55:31.409Z,96324.69
2022-12-27T10:58:48.431Z,96322.91
2022-12-27T11:01:37.977Z,96312.78
2022-12-27T11:04:24.660Z,96314.75
2022-12-27T11:07:17.556Z,96317.53
2022-12-27T11:10:20.080Z,96320.56
2022-12-27T11:13:07.503Z,96311.75
2022-12-27T11:15:58.726Z,96301.25
2022-12-27T11:18:50.486Z,96292.88
2022-12-27T11:21:38.757Z,96282.31
2022-12-27T11:24:24.557Z,96284.16
2022-12-27T11:28:00.217Z,96276.81
2022-12-27T11:31:09.741Z,96276.81
2022-12-27T11:34:01.987Z,96269.59
2022-12-27T11:36:50.667Z,96272.03
2022-12-27T11:39:46.640Z,96254.66
2022-12-27T11:42:46.688Z,96262.16
2022-12-27T11:45:41.214Z,96256.91
2022-12-27T11:48:38.547Z,96240.78
2022-12-27T11:51:27.647Z,96237.75
2022-12-27T11:54:38.399Z,96240.78
2022-12-27T11:58:00.512Z,96237.56
2022-12-27T12:01:13.660Z,96239.34
2022-12-27T12:04:30.336Z,96242.53
2022-12-27T12:07:39.388Z,96249.25
2022-12-27T12:10:28.373Z,96247.16
2022-12-27T12:13:51.731Z,96241.06
2022-12-27T12:17:02.835Z,96244.44
2022-12-27T12:20:01.183Z,96241.00
2022-12-27T12:23:02.565Z,96234.31
2022-12-27T12:25:57.261Z,96238.59
2022-12-27T12:29:01.932Z,96228.75
2022-12-27T12:32:06.455Z,96222.94
2022-12-27T12:35:37.750Z,96227.78
2022-12-27T12:38:35.830Z,96237.16
2022-12-27T12:41:31.629Z,96230.78
2022-12-27T12:44:23.600Z,96228.03
2022-12-27T12:47:31.110Z,96229.31
2022-12-27T12:50:32.617Z,96221.72
2022-12-27T12:53:43.883Z,96230.97
2022-12-27T12:56:52.517Z,96230.56
2022-12-27T13:00:09.326Z,96218.91
2022-12-27T13:03:25.883Z,96211.91
2022-12-27T13:06:39.297Z,96212.28
2022-12-27T13:09:45.150Z,96229.25
2022-12-27T13:12:39.613Z,96229.94
2022-12-27T13:15:46.937Z,96221.53
2022-12-27T13:19:09.834Z,96232.19
2022-12-27T13:22:05.598Z,96234.91
2022-12-27T13:25:03.924Z,96225.81
2022-12-27T13:27:52.007Z,96237.47
2022-12-27T13:30:47.078Z,96234.84
2022-12-27T13:34:03.718Z,96235.25
2022-12-27T13:37:10.627Z,96232.47
2022-12-27T13:40:24.012Z,96231.25
2022-12-27T13:43:52.439Z,96234.97
2022-12-27T13:47:21.180Z,96234.88
2022-12-27T13:50:41.964Z,96237.50
2022-12-27T13:53:57.872Z,96239.31
2022-12-27T13:57:17.308Z,96243.72
2022-12-27T14:00:20.108Z,96252.53
2022-12-27T14:03:45.240Z,96257.53
2022-12-27T14:06:50.966Z,96263.13
2022-12-27T14:10:10.130Z,96255.44
2022-12-27T14:13:03.735Z,96272.59
2022-12-27T14:15:55.660Z,96267.84
2022-12-27T14:19:19.399Z,96265.59
2022-12-27T14:22:14.480Z,96268.91
2022-12-27T14:25:31.015Z,96279.00
2022-12-27T14:28:37.793Z,96273.69
2022-12-27T14:31:32.749Z,96278.66
2022-12-27T14:34:33.486Z,96279.31
2022-12-27T14:38:13.037Z,96282.69
2022-12-27T14:41:29.473Z,96279.84
2022-12-27T14:44:54.147Z,96285.59
2022-12-27T14:47:45.664Z,96295.69
2022-12-27T14:50:44.979Z,96294.94
2022-12-27T14:53:36.859Z,96292.31
2022-12-27T14:56:30.871Z,96294.56
2022-12-27T14:59:27.720Z,96295.66
2022-12-27T15:02:49.692Z,96298.44
2022-12-27T15:06:17.529Z,96298.00
2022-12-27T15:09:07.681Z,96302.91
2022-12-27T15:12:16.002Z,96306.19
2022-12-27T15:15:11.260Z,96308.97
2022-12-27T15:18:00.956Z,96308.16
2022-12-27T15:20:53.230Z,96310.13
2022-12-27T15:23:58.104Z,96305.94
2022-12-27T15:26:52.331Z,96314.03
2022-12-27T15:29:40.720Z,96308.97
2022-12-27T15:32:36.068Z,96326.56
2022-12-27T15:35:29.538Z,96324.44
2022-12-27T15:38:34.186Z,96328.28
2022-12-27T15:41:35.852Z,96330.47
2022-12-27T15:44:50.368Z,96330.50
2022-12-27T15:47:55.889Z,96340.28
2022-12-27T15:50:59.143Z,96340.75
2022-12-27T15:54:13.893Z,96354.34
2022-12-27T15:57:27.756Z,96345.94
2022-12-27T16:00:18.397Z,96348.94
2022-12-27T16:03:37.687Z,96349.50
2022-12-27T16:06:36.434Z,96354.88
2022-12-27T16:09:38.711Z,96356.25
2022-12-27T16:12:39.881Z,96360.56
2022-12-27T16:15:35.723Z,96361.66
2022-12-27T16:18:24.510Z,96356.25
2022-12-27T16:21:18.479Z,96363.84
2022-12-27T16:24:10.289Z,96367.09
2022-12-27T16:27:05.657Z,96367.41
2022-12-27T16:29:51.412Z,96367.13
2022-12-27T16:32:37.197Z,96373.13
2022-12-27T16:35:23.125Z,96371.25
2022-12-27T16:38:21.250Z,96382.06
2022-12-27T16:41:27.380Z,96393.41
2022-12-27T16:44:38.910Z,96400.97
2022-12-27T16:47:27.497Z,96398.56
2022-12-27T16:50:46.541Z,96406.13
2022-12-27T16:53:54.364Z,96408.84
2022-12-27T16:56:44.896Z,96407.50
2022-12-27T17:00:04.039Z,96407.50
2022-12-27T17:02:49.963Z,96409.13
2022-12-27T17:05:36.996Z,96402.09
2022-12-27T17:08:25.942Z,96404.28
2022-12-27T17:11:29.721Z,96404.00
2022-12-27T17:14:22.628Z,96395.16
2022-12-27T17:17:18.115Z,96408.91
2022-12-27T17:20:06.563Z,96418.91
2022-12-27T17:22:54.511Z,96432.94
2022-12-27T17:25:50.872Z,96433.00
2022-12-27T17:28:45.416Z,96445.13
2022-12-27T17:32:09.137Z,96456.78
2022-12-27T17:35:13.079Z,96457.88
2022-12-27T17:38:08.165Z,96468.69
2022-12-27T17:41:03.582Z,96469.25
2022-12-27T17:44:25.694Z,96468.69
2022-12-27T17:47:48.984Z,96465.50
2022-12-27T17:50:35.677Z,96466.56
2022-12-27T17:53:43.338Z,96453.09
2022-12-27T17:56:48.078Z,96469.81
2022-12-27T17:59:35.043Z,96475.75
2022-12-27T18:02:31.636Z,96482.75
2022-12-27T18:05:18.018Z,96500.28
2022-12-27T18:08:28.260Z,96496.28
2022-12-27T18:11:15.661Z,96493.56
2022-12-27T18:14:01.699Z,96505.97
2022-12-27T18:16:51.131Z,96501.13
2022-12-27T18:19:37.237Z,96500.03
2022-12-27T18:22:23.028Z,96508.63
2022-12-27T18:25:28.051Z,96510.81
2022-12-27T18:28:33.079Z,96520.00
2022-12-27T18:31:27.001Z,96518.38
2022-12-27T18:34:40.651Z,96524.31
2022-12-27T18:37:26.485Z,96533.47
2022-12-27T18:40:34.846Z,96539.94
2022-12-27T18:43:20.831Z,96544.25
2022-12-27T18:46:06.826Z,96545.59
2022-12-27T18:48:53.256Z,96551.28
2022-12-27T19:35:46.897Z,96586.75
2022-12-27T19:38:33.618Z,96587.53
2022-12-27T19:41:20.096Z,96589.44
2022-12-27T19:44:06.211Z,96593.19
2022-12-27T19:46:52.151Z,96595.34
2022-12-27T19:49:43.061Z,96594.25
2022-12-27T19:52:29.461Z,96594.78
2022-12-27T19:55:18.042Z,96598.56
2022-12-27T19:58:03.732Z,96598.56
2022-12-27T20:00:49.665Z,96594.78
2022-12-27T20:03:35.806Z,96600.19
2022-12-27T20:06:26.701Z,96595.31
2022-12-27T20:09:19.238Z,96597.44
2022-12-27T20:12:05.711Z,96597.72
2022-12-27T20:14:51.661Z,96601.72
2022-12-27T20:17:44.469Z,96602.84
2022-12-27T20:20:32.826Z,96621.13
2022-12-27T20:23:19.245Z,96622.47
2022-12-27T21:40:56.689Z,96656.25
2022-12-27T21:43:45.517Z,96654.72
2022-12-27T21:46:36.805Z,96670.66
2022-12-27T21:49:22.430Z,96662.59
2022-12-27T21:52:08.393Z,96675.06
2022-12-27T21:54:54.722Z,96674.53
2022-12-27T21:57:40.669Z,96668.59
2022-12-27T22:00:26.448Z,96681.03
2022-12-27T22:03:12.183Z,96678.34
2022-12-27T22:05:58.245Z,96680.53
2022-12-27T22:08:46.381Z,96677.03
2022-12-27T22:11:33.086Z,96666.53
2022-12-27T22:14:23.465Z,96674.09
2022-12-27T22:17:12.050Z,96680.53
2022-12-27T22:19:57.838Z,96683.78
2022-12-27T22:22:43.809Z,96672.22
2022-12-27T22:25:29.717Z,96672.53
2022-12-27T22:28:15.436Z,96674.16
2022-12-27T22:31:30.587Z,96668.22
2022-12-27T22:34:16.529Z,96678.19
2022-12-27T22:37:02.128Z,96677.38
2022-12-27T22:39:49.205Z,96662.78
2022-12-27T22:42:34.922Z,96667.16
2022-12-27T22:45:20.549Z,96670.91
2022-12-27T22:48:07.277Z,96676.78
2022-12-27T22:50:52.911Z,96674.59
2022-12-27T22:53:38.828Z,96679.47
2022-12-27T22:56:29.981Z,96674.09
2022-12-27T22:59:18.683Z,96675.41
2022-12-27T23:02:04.852Z,96669.72
2022-12-27T23:04:50.825Z,96664.91
2022-12-27T23:08:04.347Z,96653.09
2022-12-27T23:10:42.471Z,96655.22
2022-12-27T23:13:27.984Z,96645.50
2022-12-27T23:16:13.762Z,96660.03
2022-12-27T23:18:59.501Z,96665.72
2022-12-27T23:21:45.521Z,96654.41
2022-12-27T23:24:31.360Z,96657.34
2022-12-27T23:27:17.247Z,96665.97
2022-12-27T23:30:03.183Z,96645.78
2022-12-27T23:32:49.163Z,96645.78
2022-12-27T23:35:35.185Z,96639.06
2022-12-27T23:38:20.986Z,96636.94
2022-12-27T23:41:07.613Z,96625.59
2022-12-27T23:43:55.850Z,96643.94
2022-12-27T23:46:42.303Z,96634.00
2022-12-27T23:49:28.177Z,96636.44
2022-12-27T23:52:14.251Z,96633.75
2022-12-27T23:55:00.022Z,96631.31
2022-12-27T23:57:45.552Z,96633.69
